Main page
METAR-TAF:

METAR-TAF

Airports :

Taipei, Taiwan

Taoyuan International Airport

latitude: 25-05N, longitude: 121-13E, elevation: 33 m

Current weather observation

The report was made 17 minutes ago, at 11:30 UTC
Wind 6 kt from the North/Northeast
Temperature 22°C
Humidity 78%
Pressure 1013 hPa
Visibility 10 km or more
Few clouds at a height of 2000 ft

METAR: RCTP 261130Z 03006KT 9999 FEW020 22/18 Q1013 NOSIG RMK A2993

Time: 19:47 (11:47 UTC)

Forecast

The report was made 42 minutes ago, at 11:05 UTC
Forecast valid from 26 at 12 UTC to 27 at 18 UTC
Wind 10 kt from the East/Northeast
Visibility 10 km or more
Few clouds at a height of 2000 ft
Scattered clouds at a height of 6000 ft
Temporary
from 27 at 04 UTC to 27 at 08 UTC
Wind 15 kt from the North/Northeast

TAF: RCTP 261105Z 2612/2718 06010KT 9999 FEW020 SCT060 TEMPO 2704/2708 03015KT

Weather observations and forecasts of more than 4000 airports (METAR and TAF reports).

The available stations are represented by yellow and red dots on the map.

Hover mouse over dot to see the name of the station.

Then click to see weather observations and forecasts.

To change the map : click on the green buttons with a black cross to zoom in, on the green button with a dash to zoom out, or on the green arrows for adjacent maps.


METAR-TAF: